CheckWX is a tool to help pilots better visualize weather data.  It is not intended as a substitute for an official pre-flight weather briefing.

07:29:58 UTC

LJPZ TAF
Portoroz Airport
Portoroz, Slovenia
TAF LJPZ 210500Z 2106/2115 12005KT 9999 FEW050 TEMPO 2106/2110 BKN050 BECMG 2109/2112 20007KT

Oct-21@
06:00 UTC

Oct-21 @ 06:00 UTC

Oct-21@
09:00 UTC

Oct-21 @ 09:00 UTC

TAF LJPZ 210500Z 2106/2115 12005KT 9999 FEW050
Wind
  • 120° at 5 KTS
Cloud Levels
  • Few at 5,000' AGL

Oct-21@
06:00 UTC

Oct-21 @ 06:00 UTC

Oct-21@
10:00 UTC

Oct-21 @ 10:00 UTC

TEMPO 2106/2110 BKN050

Temporary

Temporary Changes expected for less than half the time period

Cloud Levels
  • Broken at 5,000' AGL

Oct-21@
09:00 UTC

Oct-21 @ 09:00 UTC

Oct-21@
15:00 UTC

Oct-21 @ 15:00 UTC

BECMG 2109/2112 20007KT

Becoming

Becoming Conditions expected by Mon, Oct 21, 2019 @ 12:00 UTC

Wind
  • 200° at 7 KTS
Cloud Levels
  • Few at 5,000' AGL